sensor_id;sensor_type;location;lat;lon;timestamp;pressure;altitude;pressure_sealevel;temperature;humidity
9281;BME280;4679;47.966;7.958;2024-01-30T07:14:57;98559.28;;;3.21;74.42
9281;BME280;4679;47.966;7.958;2024-01-30T07:16:59;98562.22;;;3.17;74.74
9281;BME280;4679;47.966;7.958;2024-01-30T07:19:01;98561.72;;;3.14;74.71
9281;BME280;4679;47.966;7.958;2024-01-30T07:21:03;98567.31;;;3.19;74.85
9281;BME280;4679;47.966;7.958;2024-01-30T07:23:05;98563.38;;;3.15;74.36
9281;BME280;4679;47.966;7.958;2024-01-30T07:25:07;98566.66;;;3.17;74.60
9281;BME280;4679;47.966;7.958;2024-01-30T07:27:08;98566.00;;;3.15;74.42
9281;BME280;4679;47.966;7.958;2024-01-30T07:29:10;98573.34;;;3.11;74.83
9281;BME280;4679;47.966;7.958;2024-01-30T07:31:13;98570.06;;;3.09;74.43
9281;BME280;4679;47.966;7.958;2024-01-30T07:33:14;98574.00;;;3.05;74.93
9281;BME280;4679;47.966;7.958;2024-01-30T07:35:16;98579.25;;;3.05;74.93
9281;BME280;4679;47.966;7.958;2024-01-30T07:37:17;98571.91;;;3.17;74.80
9281;BME280;4679;47.966;7.958;2024-01-30T07:39:18;98574.88;;;3.30;74.29
9281;BME280;4679;47.966;7.958;2024-01-30T07:41:20;98581.59;;;3.41;74.32
9281;BME280;4679;47.966;7.958;2024-01-30T07:43:21;98572.25;;;3.54;74.48
9281;BME280;4679;47.966;7.958;2024-01-30T07:45:23;98571.78;;;3.59;73.98
9281;BME280;4679;47.966;7.958;2024-01-30T07:47:27;98576.53;;;3.56;74.40
9281;BME280;4679;47.966;7.958;2024-01-30T07:49:28;98569.47;;;3.56;74.13
9281;BME280;4679;47.966;7.958;2024-01-30T07:51:30;98577.19;;;3.58;74.01
9281;BME280;4679;47.966;7.958;2024-01-30T07:53:33;98576.69;;;3.54;74.35
9281;BME280;4679;47.966;7.958;2024-01-30T07:55:34;98581.47;;;3.50;74.45
9281;BME280;4679;47.966;7.958;2024-01-30T07:57:38;98573.25;;;3.53;74.35
9281;BME280;4679;47.966;7.958;2024-01-30T07:59:41;98580.47;;;3.68;74.44
9281;BME280;4679;47.966;7.958;2024-01-30T08:01:44;98573.94;;;3.80;74.15
9281;BME280;4679;47.966;7.958;2024-01-30T08:03:47;98582.13;;;3.77;73.75
9281;BME280;4679;47.966;7.958;2024-01-30T08:05:48;98584.91;;;3.75;74.10
9281;BME280;4679;47.966;7.958;2024-01-30T08:07:50;98578.53;;;3.78;74.03
9281;BME280;4679;47.966;7.958;2024-01-30T08:09:52;98577.53;;;3.79;74.08
9281;BME280;4679;47.966;7.958;2024-01-30T08:11:53;98582.28;;;3.83;74.09
9281;BME280;4679;47.966;7.958;2024-01-30T08:13:55;98581.94;;;3.86;74.14
9281;BME280;4679;47.966;7.958;2024-01-30T08:15:56;98573.09;;;3.96;74.28
9281;BME280;4679;47.966;7.958;2024-01-30T08:17:58;98563.22;;;4.06;73.85
9281;BME280;4679;47.966;7.958;2024-01-30T08:20:01;98572.25;;;4.19;73.69
9281;BME280;4679;47.966;7.958;2024-01-30T08:22:01;98578.13;;;4.30;73.66
9281;BME280;4679;47.966;7.958;2024-01-30T08:24:03;98564.81;;;4.39;73.48
9281;BME280;4679;47.966;7.958;2024-01-30T08:26:05;98562.97;;;4.48;73.62
9281;BME280;4679;47.966;7.958;2024-01-30T08:28:06;98557.88;;;4.54;73.38
9281;BME280;4679;47.966;7.958;2024-01-30T08:30:08;98557.34;;;4.59;73.19
9281;BME280;4679;47.966;7.958;2024-01-30T08:32:10;98555.50;;;4.68;72.68
9281;BME280;4679;47.966;7.958;2024-01-30T08:34:11;98558.75;;;4.78;73.49
9281;BME280;4679;47.966;7.958;2024-01-30T08:36:15;98555.63;;;4.82;73.02
9281;BME280;4679;47.966;7.958;2024-01-30T08:38:17;98558.91;;;4.84;73.42
9281;BME280;4679;47.966;7.958;2024-01-30T08:40:18;98553.09;;;4.89;73.15
9281;BME280;4679;47.966;7.958;2024-01-30T08:42:20;98552.94;;;4.90;73.63
9281;BME280;4679;47.966;7.958;2024-01-30T08:44:22;98547.97;;;4.95;73.37
9281;BME280;4679;47.966;7.958;2024-01-30T08:46:24;98551.69;;;5.09;73.02
9281;BME280;4679;47.966;7.958;2024-01-30T08:48:26;98555.78;;;5.12;73.64
9281;BME280;4679;47.966;7.958;2024-01-30T08:50:26;98550.34;;;5.13;73.43
9281;BME280;4679;47.966;7.958;2024-01-30T08:52:29;98550.84;;;5.17;72.88
9281;BME280;4679;47.966;7.958;2024-01-30T08:54:31;98548.47;;;5.22;73.62
9281;BME280;4679;47.966;7.958;2024-01-30T08:56:34;98540.72;;;5.28;72.64
9281;BME280;4679;47.966;7.958;2024-01-30T08:58:36;98547.22;;;5.41;72.90
9281;BME280;4679;47.966;7.958;2024-01-30T09:00:38;98556.22;;;5.46;72.91
9281;BME280;4679;47.966;7.958;2024-01-30T09:02:39;98559.69;;;5.47;72.98
9281;BME280;4679;47.966;7.958;2024-01-30T09:04:41;98548.97;;;5.48;72.88
9281;BME280;4679;47.966;7.958;2024-01-30T09:06:42;98547.41;;;5.62;73.17
9281;BME280;4679;47.966;7.958;2024-01-30T09:08:44;98549.00;;;5.86;72.49
9281;BME280;4679;47.966;7.958;2024-01-30T09:10:46;98558.41;;;5.88;71.75
9281;BME280;4679;47.966;7.958;2024-01-30T09:12:48;98555.66;;;5.96;72.19
9281;BME280;4679;47.966;7.958;2024-01-30T09:14:49;98548.19;;;6.08;72.75
9281;BME280;4679;47.966;7.958;2024-01-30T09:16:51;98550.06;;;6.14;72.45
9281;BME280;4679;47.966;7.958;2024-01-30T09:18:53;98546.56;;;6.22;72.64
9281;BME280;4679;47.966;7.958;2024-01-30T09:20:53;98552.00;;;6.20;72.82
9281;BME280;4679;47.966;7.958;2024-01-30T09:22:55;98563.19;;;6.22;72.20
9281;BME280;4679;47.966;7.958;2024-01-30T09:24:58;98551.91;;;6.28;71.51
9281;BME280;4679;47.966;7.958;2024-01-30T09:26:59;98559.81;;;6.28;72.82
9281;BME280;4679;47.966;7.958;2024-01-30T09:29:01;98556.19;;;6.29;72.22
9281;BME280;4679;47.966;7.958;2024-01-30T09:31:02;98561.56;;;6.36;71.93
9281;BME280;4679;47.966;7.958;2024-01-30T09:33:04;98568.38;;;6.45;72.71
9281;BME280;4679;47.966;7.958;2024-01-30T09:35:07;98560.47;;;6.60;71.93
9281;BME280;4679;47.966;7.958;2024-01-30T09:37:07;98556.75;;;6.69;71.34
9281;BME280;4679;47.966;7.958;2024-01-30T09:39:09;98563.72;;;6.77;71.24
9281;BME280;4679;47.966;7.958;2024-01-30T09:41:12;98569.28;;;6.82;71.50
9281;BME280;4679;47.966;7.958;2024-01-30T09:43:17;98568.91;;;6.85;71.58
9281;BME280;4679;47.966;7.958;2024-01-30T09:45:24;98568.81;;;6.93;71.31
9281;BME280;4679;47.966;7.958;2024-01-30T09:47:26;98572.91;;;6.95;71.50
9281;BME280;4679;47.966;7.958;2024-01-30T09:49:27;98568.72;;;7.01;71.83
9281;BME280;4679;47.966;7.958;2024-01-30T09:51:29;98562.22;;;7.03;71.23
9281;BME280;4679;47.966;7.958;2024-01-30T09:53:31;98566.31;;;7.06;71.23
9281;BME280;4679;47.966;7.958;2024-01-30T09:55:33;98571.69;;;7.13;71.39
9281;BME280;4679;47.966;7.958;2024-01-30T09:57:38;98568.75;;;7.22;70.85
9281;BME280;4679;47.966;7.958;2024-01-30T09:59:41;98573.09;;;7.30;71.22
9281;BME280;4679;47.966;7.958;2024-01-30T10:01:44;98566.25;;;7.35;70.50
9281;BME280;4679;47.966;7.958;2024-01-30T10:03:45;98571.34;;;7.37;70.83
9281;BME280;4679;47.966;7.958;2024-01-30T10:05:50;98578.56;;;7.50;70.59
9281;BME280;4679;47.966;7.958;2024-01-30T10:07:55;98574.00;;;7.58;70.62
9281;BME280;4679;47.966;7.958;2024-01-30T10:09:57;98569.59;;;7.65;70.47
9281;BME280;4679;47.966;7.958;2024-01-30T10:11:59;98572.50;;;7.70;70.49
9281;BME280;4679;47.966;7.958;2024-01-30T10:14:02;98570.94;;;7.76;70.33
9281;BME280;4679;47.966;7.958;2024-01-30T10:16:04;98571.78;;;7.83;70.13
9281;BME280;4679;47.966;7.958;2024-01-30T10:18:08;98568.59;;;7.88;69.97
9281;BME280;4679;47.966;7.958;2024-01-30T10:20:11;98565.56;;;7.91;70.56
9281;BME280;4679;47.966;7.958;2024-01-30T10:22:12;98572.53;;;7.98;70.39
9281;BME280;4679;47.966;7.958;2024-01-30T10:24:14;98569.38;;;8.09;69.85
9281;BME280;4679;47.966;7.958;2024-01-30T10:26:17;98567.16;;;8.13;69.98
9281;BME280;4679;47.966;7.958;2024-01-30T10:28:19;98573.69;;;8.17;69.69
9281;BME280;4679;47.966;7.958;2024-01-30T10:30:21;98568.22;;;8.19;69.93
9281;BME280;4679;47.966;7.958;2024-01-30T10:32:22;98571.69;;;8.19;69.82
9281;BME280;4679;47.966;7.958;2024-01-30T10:34:24;98560.56;;;8.30;69.98
9281;BME280;4679;47.966;7.958;2024-01-30T10:36:28;98561.28;;;8.39;69.89
9281;BME280;4679;47.966;7.958;2024-01-30T10:38:31;98560.06;;;8.41;69.32
9281;BME280;4679;47.966;7.958;2024-01-30T10:40:33;98551.94;;;8.43;69.94
9281;BME280;4679;47.966;7.958;2024-01-30T10:42:37;98556.41;;;8.42;69.69
9281;BME280;4679;47.966;7.958;2024-01-30T10:44:44;98549.53;;;8.48;69.58
9281;BME280;4679;47.966;7.958;2024-01-30T10:46:54;98547.94;;;8.54;70.10
9281;BME280;4679;47.966;7.958;2024-01-30T10:48:59;98550.84;;;8.65;69.51
9281;BME280;4679;47.966;7.958;2024-01-30T10:51:02;98549.22;;;8.71;69.64
9281;BME280;4679;47.966;7.958;2024-01-30T10:53:06;98550.47;;;8.75;69.87
9281;BME280;4679;47.966;7.958;2024-01-30T10:55:08;98555.00;;;8.81;69.50
9281;BME280;4679;47.966;7.958;2024-01-30T10:57:10;98553.81;;;8.90;69.08
9281;BME280;4679;47.966;7.958;2024-01-30T10:59:13;98545.47;;;8.93;68.75
9281;BME280;4679;47.966;7.958;2024-01-30T11:01:15;98554.88;;;9.02;68.75
9281;BME280;4679;47.966;7.958;2024-01-30T11:03:18;98558.34;;;9.03;68.79
9281;BME280;4679;47.966;7.958;2024-01-30T11:05:24;98550.81;;;9.06;69.28
9281;BME280;4679;47.966;7.958;2024-01-30T11:07:28;98554.50;;;9.12;69.36
9281;BME280;4679;47.966;7.958;2024-01-30T11:09:30;98550.22;;;9.17;69.33
9281;BME280;4679;47.966;7.958;2024-01-30T11:11:31;98548.03;;;9.34;68.38
9281;BME280;4679;47.966;7.958;2024-01-30T11:13:34;98551.97;;;9.45;68.02
9281;BME280;4679;47.966;7.958;2024-01-30T11:15:37;98541.97;;;9.53;68.28
9281;BME280;4679;47.966;7.958;2024-01-30T11:17:43;98541.38;;;9.58;68.09
9281;BME280;4679;47.966;7.958;2024-01-30T11:19:46;98546.88;;;9.63;68.79
9281;BME280;4679;47.966;7.958;2024-01-30T11:21:50;98536.31;;;9.76;68.71
9281;BME280;4679;47.966;7.958;2024-01-30T11:23:55;98546.69;;;9.84;67.51
9281;BME280;4679;47.966;7.958;2024-01-30T11:25:56;98544.47;;;10.01;66.89
9281;BME280;4679;47.966;7.958;2024-01-30T11:27:58;98529.75;;;10.12;67.72
9281;BME280;4679;47.966;7.958;2024-01-30T11:30:02;98527.97;;;10.19;67.21
9281;BME280;4679;47.966;7.958;2024-01-30T11:32:03;98530.78;;;10.24;67.11
9281;BME280;4679;47.966;7.958;2024-01-30T11:34:05;98542.22;;;10.31;66.90
9281;BME280;4679;47.966;7.958;2024-01-30T11:36:08;98543.44;;;10.35;67.01
9281;BME280;4679;47.966;7.958;2024-01-30T11:38:11;98536.09;;;10.37;67.50
9281;BME280;4679;47.966;7.958;2024-01-30T11:40:12;98537.91;;;10.43;66.35
9281;BME280;4679;47.966;7.958;2024-01-30T11:42:13;98530.34;;;10.47;66.07
9281;BME280;4679;47.966;7.958;2024-01-30T11:44:16;98529.09;;;10.56;65.94
9281;BME280;4679;47.966;7.958;2024-01-30T11:46:17;98537.25;;;10.68;65.93
9281;BME280;4679;47.966;7.958;2024-01-30T11:48:19;98522.50;;;10.78;66.18
9281;BME280;4679;47.966;7.958;2024-01-30T11:50:21;98521.84;;;10.89;64.84
9281;BME280;4679;47.966;7.958;2024-01-30T11:52:23;98518.97;;;10.98;64.18
9281;BME280;4679;47.966;7.958;2024-01-30T11:54:25;98519.31;;;11.01;64.63
9281;BME280;4679;47.966;7.958;2024-01-30T11:56:26;98520.97;;;11.02;64.15
9281;BME280;4679;47.966;7.958;2024-01-30T11:58:28;98517.66;;;11.07;64.36
9281;BME280;4679;47.966;7.958;2024-01-30T12:00:30;98511.47;;;11.19;64.03
9281;BME280;4679;47.966;7.958;2024-01-30T12:02:31;98511.06;;;11.22;63.37
9281;BME280;4679;47.966;7.958;2024-01-30T12:04:32;98508.13;;;11.31;62.90
9281;BME280;4679;47.966;7.958;2024-01-30T12:06:34;98507.91;;;11.39;63.15
9281;BME280;4679;47.966;7.958;2024-01-30T12:08:37;98506.81;;;11.46;63.46
9281;BME280;4679;47.966;7.958;2024-01-30T12:10:39;98506.78;;;11.53;62.11
9281;BME280;4679;47.966;7.958;2024-01-30T12:12:42;98501.53;;;11.71;61.85
9281;BME280;4679;47.966;7.958;2024-01-30T12:14:45;98498.03;;;12.02;61.60
9281;BME280;4679;47.966;7.958;2024-01-30T12:16:48;98505.38;;;12.25;60.43
9281;BME280;4679;47.966;7.958;2024-01-30T12:18:59;98491.59;;;12.35;60.47
9281;BME280;4679;47.966;7.958;2024-01-30T12:21:01;98498.38;;;12.49;60.02
9281;BME280;4679;47.966;7.958;2024-01-30T12:23:03;98497.13;;;12.51;59.94
9281;BME280;4679;47.966;7.958;2024-01-30T12:25:07;98491.50;;;12.59;59.39
9281;BME280;4679;47.966;7.958;2024-01-30T12:27:09;98489.22;;;12.63;59.45
9281;BME280;4679;47.966;7.958;2024-01-30T12:29:10;98497.91;;;12.70;59.40
9281;BME280;4679;47.966;7.958;2024-01-30T12:31:12;98490.53;;;12.72;58.76
9281;BME280;4679;47.966;7.958;2024-01-30T12:33:16;98493.19;;;12.72;59.03
9281;BME280;4679;47.966;7.958;2024-01-30T12:35:18;98493.13;;;12.79;58.09
9281;BME280;4679;47.966;7.958;2024-01-30T12:37:19;98494.22;;;12.89;57.84
9281;BME280;4679;47.966;7.958;2024-01-30T12:39:22;98499.59;;;13.01;57.69
9281;BME280;4679;47.966;7.958;2024-01-30T12:41:25;98496.41;;;13.11;57.43
9281;BME280;4679;47.966;7.958;2024-01-30T12:43:29;98498.84;;;13.12;56.88
9281;BME280;4679;47.966;7.958;2024-01-30T12:45:30;98501.22;;;13.02;56.88
9281;BME280;4679;47.966;7.958;2024-01-30T12:47:32;98497.84;;;12.95;56.93
9281;BME280;4679;47.966;7.958;2024-01-30T12:49:33;98496.66;;;12.91;56.87
9281;BME280;4679;47.966;7.958;2024-01-30T12:51:35;98483.41;;;12.84;56.76
9281;BME280;4679;47.966;7.958;2024-01-30T12:53:37;98485.25;;;12.84;56.89
9281;BME280;4679;47.966;7.958;2024-01-30T12:55:38;98488.38;;;12.81;56.62
9281;BME280;4679;47.966;7.958;2024-01-30T12:57:41;98488.63;;;12.79;56.81
9281;BME280;4679;47.966;7.958;2024-01-30T12:59:43;98489.88;;;12.77;56.48
9281;BME280;4679;47.966;7.958;2024-01-30T13:01:45;98489.50;;;12.73;56.67
9281;BME280;4679;47.966;7.958;2024-01-30T13:03:47;98491.94;;;12.75;56.49
9281;BME280;4679;47.966;7.958;2024-01-30T13:05:49;98482.31;;;12.74;57.01
9281;BME280;4679;47.966;7.958;2024-01-30T13:07:50;98493.34;;;12.77;56.58
9281;BME280;4679;47.966;7.958;2024-01-30T13:09:52;98489.88;;;12.77;56.60
9281;BME280;4679;47.966;7.958;2024-01-30T13:11:53;98488.84;;;12.78;56.37
9281;BME280;4679;47.966;7.958;2024-01-30T13:13:56;98493.25;;;12.84;56.51
9281;BME280;4679;47.966;7.958;2024-01-30T13:15:58;98490.59;;;12.84;56.52
9281;BME280;4679;47.966;7.958;2024-01-30T13:17:59;98486.88;;;12.85;56.53
9281;BME280;4679;47.966;7.958;2024-01-30T13:20:00;98494.47;;;12.99;56.14
9281;BME280;4679;47.966;7.958;2024-01-30T13:22:01;98496.75;;;13.14;56.03
9281;BME280;4679;47.966;7.958;2024-01-30T13:24:04;98496.56;;;13.16;56.10
9281;BME280;4679;47.966;7.958;2024-01-30T13:26:06;98492.03;;;13.16;56.14
9281;BME280;4679;47.966;7.958;2024-01-30T13:30:10;98495.16;;;13.13;56.14
9281;BME280;4679;47.966;7.958;2024-01-30T13:32:12;98491.88;;;13.11;56.25
9281;BME280;4679;47.966;7.958;2024-01-30T13:34:13;98496.19;;;13.12;56.29
9281;BME280;4679;47.966;7.958;2024-01-30T13:36:15;98492.34;;;13.08;56.39
9281;BME280;4679;47.966;7.958;2024-01-30T13:38:16;98485.00;;;13.03;56.49
9281;BME280;4679;47.966;7.958;2024-01-30T13:40:18;98491.38;;;13.02;56.98
9281;BME280;4679;47.966;7.958;2024-01-30T13:42:20;98483.00;;;12.99;56.64
9281;BME280;4679;47.966;7.958;2024-01-30T13:44:21;98484.19;;;13.03;56.42
9281;BME280;4679;47.966;7.958;2024-01-30T13:46:24;98487.31;;;13.00;56.93
9281;BME280;4679;47.966;7.958;2024-01-30T13:48:26;98482.78;;;13.00;56.77
9281;BME280;4679;47.966;7.958;2024-01-30T13:50:27;98494.84;;;13.03;56.88
9281;BME280;4679;47.966;7.958;2024-01-30T13:52:28;98495.44;;;13.05;56.70
9281;BME280;4679;47.966;7.958;2024-01-30T13:54:29;98489.97;;;13.00;56.86
9281;BME280;4679;47.966;7.958;2024-01-30T13:56:31;98477.94;;;12.97;56.74
9281;BME280;4679;47.966;7.958;2024-01-30T13:58:33;98482.66;;;12.95;56.96
9281;BME280;4679;47.966;7.958;2024-01-30T14:00:36;98486.38;;;12.94;57.11
9281;BME280;4679;47.966;7.958;2024-01-30T14:02:39;98485.34;;;12.95;57.14
9281;BME280;4679;47.966;7.958;2024-01-30T14:04:39;98491.47;;;12.96;57.13
9281;BME280;4679;47.966;7.958;2024-01-30T14:06:41;98493.53;;;12.94;57.36
9281;BME280;4679;47.966;7.958;2024-01-30T14:08:43;98501.97;;;12.91;57.34
9281;BME280;4679;47.966;7.958;2024-01-30T14:10:44;98491.31;;;12.91;57.26
9281;BME280;4679;47.966;7.958;2024-01-30T14:12:46;98491.09;;;12.92;57.61
9281;BME280;4679;47.966;7.958;2024-01-30T14:14:48;98491.69;;;12.94;57.64
9281;BME280;4679;47.966;7.958;2024-01-30T14:16:49;98494.00;;;12.91;57.86
9281;BME280;4679;47.966;7.958;2024-01-30T14:18:52;98486.06;;;12.84;57.72
9281;BME280;4679;47.966;7.958;2024-01-30T14:20:54;98488.97;;;12.83;57.65
9281;BME280;4679;47.966;7.958;2024-01-30T14:22:56;98502.16;;;12.78;58.09
9281;BME280;4679;47.966;7.958;2024-01-30T14:24:57;98500.59;;;12.70;58.15
9281;BME280;4679;47.966;7.958;2024-01-30T14:26:59;98500.47;;;12.65;58.45
9281;BME280;4679;47.966;7.958;2024-01-30T14:29:01;98503.78;;;12.60;58.47
9281;BME280;4679;47.966;7.958;2024-01-30T14:31:02;98505.56;;;12.66;58.44
9281;BME280;4679;47.966;7.958;2024-01-30T14:33:05;98502.31;;;12.64;58.29
9281;BME280;4679;47.966;7.958;2024-01-30T14:35:09;98509.84;;;12.67;58.46
9281;BME280;4679;47.966;7.958;2024-01-30T14:37:10;98514.59;;;12.65;58.56
9281;BME280;4679;47.966;7.958;2024-01-30T14:39:12;98511.38;;;12.57;58.54
9281;BME280;4679;47.966;7.958;2024-01-30T14:41:14;98506.50;;;12.54;58.96
9281;BME280;4679;47.966;7.958;2024-01-30T14:43:15;98508.81;;;12.50;58.95
9281;BME280;4679;47.966;7.958;2024-01-30T14:45:17;98514.50;;;12.54;58.46
9281;BME280;4679;47.966;7.958;2024-01-30T14:47:19;98513.47;;;12.55;58.76
9281;BME280;4679;47.966;7.958;2024-01-30T14:49:19;98513.69;;;12.53;58.61
9281;BME280;4679;47.966;7.958;2024-01-30T14:51:22;98517.47;;;12.46;59.01
9281;BME280;4679;47.966;7.958;2024-01-30T14:53:24;98524.25;;;12.42;58.65
9281;BME280;4679;47.966;7.958;2024-01-30T14:55:25;98511.25;;;12.33;59.51
9281;BME280;4679;47.966;7.958;2024-01-30T14:57:28;98521.72;;;12.28;59.10
9281;BME280;4679;47.966;7.958;2024-01-30T14:59:30;98519.72;;;12.24;59.59
9281;BME280;4679;47.966;7.958;2024-01-30T15:01:32;98519.16;;;12.22;59.22
9281;BME280;4679;47.966;7.958;2024-01-30T15:03:33;98523.69;;;12.15;59.30
9281;BME280;4679;47.966;7.958;2024-01-30T15:05:36;98521.47;;;12.12;59.78
9281;BME280;4679;47.966;7.958;2024-01-30T15:07:39;98530.34;;;12.06;59.41
9281;BME280;4679;47.966;7.958;2024-01-30T15:09:40;98529.13;;;12.02;59.38
9281;BME280;4679;47.966;7.958;2024-01-30T15:11:44;98530.38;;;11.99;59.72
9281;BME280;4679;47.966;7.958;2024-01-30T15:13:45;98537.97;;;11.95;59.84
9281;BME280;4679;47.966;7.958;2024-01-30T15:15:47;98527.75;;;11.92;59.93
9281;BME280;4679;47.966;7.958;2024-01-30T15:17:47;98530.28;;;11.87;59.78
9281;BME280;4679;47.966;7.958;2024-01-30T15:19:49;98531.75;;;11.83;60.09
9281;BME280;4679;47.966;7.958;2024-01-30T15:21:51;98526.88;;;11.74;59.89
9281;BME280;4679;47.966;7.958;2024-01-30T15:23:54;98532.22;;;11.67;60.31
9281;BME280;4679;47.966;7.958;2024-01-30T15:25:55;98532.06;;;11.62;61.12
9281;BME280;4679;47.966;7.958;2024-01-30T15:27:57;98537.81;;;11.59;60.96
9281;BME280;4679;47.966;7.958;2024-01-30T15:29:58;98529.66;;;11.54;60.30
9281;BME280;4679;47.966;7.958;2024-01-30T15:32:00;98530.09;;;11.51;61.21
9281;BME280;4679;47.966;7.958;2024-01-30T15:34:02;98532.16;;;11.49;61.22
9281;BME280;4679;47.966;7.958;2024-01-30T15:36:04;98537.69;;;11.47;61.29
9281;BME280;4679;47.966;7.958;2024-01-30T15:38:07;98538.34;;;11.43;61.79
9281;BME280;4679;47.966;7.958;2024-01-30T15:40:10;98540.59;;;11.39;61.82
9281;BME280;4679;47.966;7.958;2024-01-30T15:42:12;98538.78;;;11.33;61.75
9281;BME280;4679;47.966;7.958;2024-01-30T15:44:14;98535.38;;;11.26;62.26
9281;BME280;4679;47.966;7.958;2024-01-30T15:46:16;98537.84;;;11.21;61.38
9281;BME280;4679;47.966;7.958;2024-01-30T15:48:18;98541.94;;;11.17;62.10
9281;BME280;4679;47.966;7.958;2024-01-30T15:50:20;98544.44;;;11.12;62.90
9281;BME280;4679;47.966;7.958;2024-01-30T15:52:21;98540.56;;;11.08;61.87
9281;BME280;4679;47.966;7.958;2024-01-30T15:54:23;98544.25;;;11.00;62.98
9281;BME280;4679;47.966;7.958;2024-01-30T15:56:26;98550.63;;;10.92;62.85
9281;BME280;4679;47.966;7.958;2024-01-30T15:58:27;98548.22;;;10.84;63.00
9281;BME280;4679;47.966;7.958;2024-01-30T16:00:29;98554.56;;;10.83;63.65
9281;BME280;4679;47.966;7.958;2024-01-30T16:02:30;98554.31;;;10.85;63.47
9281;BME280;4679;47.966;7.958;2024-01-30T16:04:32;98552.94;;;10.82;62.74
9281;BME280;4679;47.966;7.958;2024-01-30T16:06:34;98558.03;;;10.77;63.59
9281;BME280;4679;47.966;7.958;2024-01-30T16:08:35;98567.44;;;10.73;64.22
9281;BME280;4679;47.966;7.958;2024-01-30T16:10:37;98561.56;;;10.65;64.60
9281;BME280;4679;47.966;7.958;2024-01-30T16:12:40;98564.81;;;10.60;63.59
9281;BME280;4679;47.966;7.958;2024-01-30T16:14:45;98560.94;;;10.56;63.75
9281;BME280;4679;47.966;7.958;2024-01-30T16:16:46;98572.19;;;10.51;63.97
9281;BME280;4679;47.966;7.958;2024-01-30T16:18:48;98570.34;;;10.45;64.69
9281;BME280;4679;47.966;7.958;2024-01-30T16:20:50;98576.69;;;10.44;64.08
9281;BME280;4679;47.966;7.958;2024-01-30T16:22:51;98578.34;;;10.39;65.00
9281;BME280;4679;47.966;7.958;2024-01-30T16:24:53;98575.69;;;10.39;65.50
9281;BME280;4679;47.966;7.958;2024-01-30T16:26:55;98577.72;;;10.37;64.67
9281;BME280;4679;47.966;7.958;2024-01-30T16:28:58;98574.66;;;10.33;65.24
9281;BME280;4679;47.966;7.958;2024-01-30T16:30:59;98570.78;;;10.29;64.74
9281;BME280;4679;47.966;7.958;2024-01-30T16:33:02;98580.97;;;10.26;65.56
9281;BME280;4679;47.966;7.958;2024-01-30T16:35:04;98581.81;;;10.19;64.92
9281;BME280;4679;47.966;7.958;2024-01-30T16:37:05;98576.88;;;10.16;65.19
9281;BME280;4679;47.966;7.958;2024-01-30T16:39:07;98581.38;;;10.16;65.74
9281;BME280;4679;47.966;7.958;2024-01-30T16:41:08;98589.34;;;10.16;66.26
9281;BME280;4679;47.966;7.958;2024-01-30T16:43:11;98589.13;;;10.11;65.47
9281;BME280;4679;47.966;7.958;2024-01-30T16:45:14;98589.75;;;10.06;65.79
9281;BME280;4679;47.966;7.958;2024-01-30T16:47:16;98588.91;;;9.99;66.23
9281;BME280;4679;47.966;7.958;2024-01-30T16:49:17;98599.53;;;9.93;65.85
9281;BME280;4679;47.966;7.958;2024-01-30T16:51:19;98596.25;;;9.84;67.00
9281;BME280;4679;47.966;7.958;2024-01-30T16:53:21;98597.47;;;9.81;66.63
9281;BME280;4679;47.966;7.958;2024-01-30T16:55:22;98599.09;;;9.82;67.04
9281;BME280;4679;47.966;7.958;2024-01-30T16:57:26;98602.75;;;9.81;66.91
9281;BME280;4679;47.966;7.958;2024-01-30T16:59:27;98596.66;;;9.81;66.77
9281;BME280;4679;47.966;7.958;2024-01-30T17:01:30;98602.16;;;9.79;66.71
9281;BME280;4679;47.966;7.958;2024-01-30T17:03:32;98608.06;;;9.75;66.71
9281;BME280;4679;47.966;7.958;2024-01-30T17:05:33;98611.94;;;9.72;66.82
9281;BME280;4679;47.966;7.958;2024-01-30T17:07:35;98610.69;;;9.68;67.06
9281;BME280;4679;47.966;7.958;2024-01-30T17:09:36;98609.47;;;9.64;67.64
9281;BME280;4679;47.966;7.958;2024-01-30T17:11:38;98613.56;;;9.60;67.51
9281;BME280;4679;47.966;7.958;2024-01-30T17:13:39;98610.28;;;9.58;67.61
9281;BME280;4679;47.966;7.958;2024-01-30T17:15:40;98622.88;;;9.49;67.51
9281;BME280;4679;47.966;7.958;2024-01-30T17:17:43;98619.59;;;9.41;68.20
9281;BME280;4679;47.966;7.958;2024-01-30T17:19:45;98623.25;;;9.40;68.10
9281;BME280;4679;47.966;7.958;2024-01-30T17:21:46;98616.13;;;9.40;67.64
9281;BME280;4679;47.966;7.958;2024-01-30T17:23:48;98623.25;;;9.40;68.72
9281;BME280;4679;47.966;7.958;2024-01-30T17:25:50;98629.78;;;9.37;68.54
9281;BME280;4679;47.966;7.958;2024-01-30T17:27:51;98624.03;;;9.34;67.94
9281;BME280;4679;47.966;7.958;2024-01-30T17:29:53;98630.78;;;9.30;68.18
9281;BME280;4679;47.966;7.958;2024-01-30T17:31:54;98623.59;;;9.24;68.42
9281;BME280;4679;47.966;7.958;2024-01-30T17:33:57;98625.63;;;9.15;68.59
9281;BME280;4679;47.966;7.958;2024-01-30T17:35:59;98629.66;;;9.11;69.17
9281;BME280;4679;47.966;7.958;2024-01-30T17:38:01;98629.47;;;9.12;68.90
9281;BME280;4679;47.966;7.958;2024-01-30T17:40:04;98628.66;;;9.12;69.42
9281;BME280;4679;47.966;7.958;2024-01-30T17:42:05;98643.72;;;9.11;69.27
9281;BME280;4679;47.966;7.958;2024-01-30T17:44:07;98646.31;;;9.05;69.38
9281;BME280;4679;47.966;7.958;2024-01-30T17:46:08;98650.41;;;9.01;69.29
9281;BME280;4679;47.966;7.958;2024-01-30T17:48:09;98650.19;;;9.02;69.22
9281;BME280;4679;47.966;7.958;2024-01-30T17:50:12;98653.03;;;9.01;69.96
9281;BME280;4679;47.966;7.958;2024-01-30T17:52:14;98648.75;;;9.00;69.59
9281;BME280;4679;47.966;7.958;2024-01-30T17:54:16;98649.16;;;8.97;69.21
9281;BME280;4679;47.966;7.958;2024-01-30T17:56:18;98652.38;;;8.92;69.83
9281;BME280;4679;47.966;7.958;2024-01-30T17:58:19;98651.75;;;8.90;69.88
9281;BME280;4679;47.966;7.958;2024-01-30T18:00:21;98653.38;;;8.91;69.66
9281;BME280;4679;47.966;7.958;2024-01-30T18:02:23;98649.91;;;8.91;69.64
9281;BME280;4679;47.966;7.958;2024-01-30T18:04:24;98644.19;;;8.87;70.30
9281;BME280;4679;47.966;7.958;2024-01-30T18:06:26;98642.53;;;8.86;70.72
9281;BME280;4679;47.966;7.958;2024-01-30T18:08:28;98639.31;;;8.84;70.25
9281;BME280;4679;47.966;7.958;2024-01-30T18:10:30;98643.97;;;8.82;70.76
9281;BME280;4679;47.966;7.958;2024-01-30T18:12:31;98655.56;;;8.81;70.81
9281;BME280;4679;47.966;7.958;2024-01-30T18:14:33;98660.63;;;8.76;70.21
9281;BME280;4679;47.966;7.958;2024-01-30T18:16:35;98655.91;;;8.71;70.78
9281;BME280;4679;47.966;7.958;2024-01-30T18:18:36;98666.69;;;8.70;70.89
9281;BME280;4679;47.966;7.958;2024-01-30T18:20:38;98662.78;;;8.66;71.06
9281;BME280;4679;47.966;7.958;2024-01-30T18:22:41;98663.38;;;8.61;71.04
9281;BME280;4679;47.966;7.958;2024-01-30T18:24:46;98668.84;;;8.60;71.46